West End, Virginia
Current Conditions -  °F | °C
As of 10:54 AM on Thursday 23 Oct 2014 (Local Time) from KOFP Reporting Station
Few Clouds Few Clouds  
Wind Chill: 58°   Ceiling: Unl
Heat Index: 58°   Visibility: 10mi
Dew Point: 44°   Wind: 16mph
Humidity: 60%   Direction: 310°NW
Pressure: 29.94"   Gusts: 22mph
Location:  37.5861°N, 77.4907°W
Report Text: KOFP 231454Z AUTO 31014G19KT 270V330 10SM FEW060 14/07 A2994 RMK AO2 SLP139 T01440067 58007
Loading
Personal Weather Stations






























Interactive Weather Map
Tropical Storm Tracking
New forecast layout! Learn more

10-Day Weather Forecast

Advertisements
Track Severe Weather on mobile